Time;durP1;ratioP1;P1;durP2;ratioP2;P2;SDS_P1;SDS_P2;PMS_P1;PMS_P2;Temp;Humidity;BMP_temperature;BMP_pressure;BME280_temperature;BME280_humidity;BME280_pressure;Samples;Min_cycle;Max_cycle;Signal;HPM_P1;HPM_P2
2021/06/01 00:00:13;;;;;;;7.55;6.00;;;;;;;;;;1497376;39;20028;-63
2021/06/01 00:01:23;;;;;;;8.23;5.68;;;;;;;;;;1497714;39;20036;-63
2021/06/01 00:02:24;;;;;;;7.60;5.82;;;;;;;;;;1497363;39;20046;-62
2021/06/01 00:03:25;;;;;;;7.75;5.60;;;;;;;;;;1497627;39;20035;-63
2021/06/01 00:04:27;;;;;;;7.90;5.78;;;;;;;;;;1497647;39;20028;-63
2021/06/01 00:05:28;;;;;;;7.88;5.82;;;;;;;;;;1497369;39;20483;-62
2021/06/01 00:06:29;;;;;;;7.10;6.03;;;;;;;;;;1497699;39;20128;-63
2021/06/01 00:07:30;;;;;;;7.28;5.70;;;;;;;;;;1497552;39;20112;-63
2021/06/01 00:08:32;;;;;;;8.10;6.05;;;;;;;;;;1497023;39;20023;-63
2021/06/01 00:09:33;;;;;;;7.72;5.55;;;;;;;;;;1497260;39;20105;-63
2021/06/01 00:10:34;;;;;;;9.52;5.68;;;;;;;;;;1497414;39;20024;-63
2021/06/01 00:11:36;;;;;;;7.75;5.97;;;;;;;;;;1497682;39;20031;-63
2021/06/01 00:12:39;;;;;;;7.80;5.70;;;;;;;;;;1497424;39;20116;-62
2021/06/01 00:13:41;;;;;;;7.95;5.70;;;;;;;;;;1497479;39;20357;-63
2021/06/01 00:14:42;;;;;;;7.38;5.57;;;;;;;;;;1497569;39;20027;-62
2021/06/01 00:15:43;;;;;;;8.95;5.85;;;;;;;;;;1497540;39;20034;-63
2021/06/01 00:16:45;;;;;;;7.05;5.70;;;;;;;;;;1497608;39;20023;-63
2021/06/01 00:17:46;;;;;;;7.63;5.35;;;;;;;;;;1497676;39;20032;-63
2021/06/01 00:18:47;;;;;;;6.90;5.63;;;;;;;;;;1497484;39;20050;-63
2021/06/01 00:19:48;;;;;;;8.75;5.80;;;;;;;;;;1497707;39;20056;-63
2021/06/01 00:20:49;;;;;;;8.38;6.03;;;;;;;;;;1497301;39;20024;-63
2021/06/01 00:21:51;;;;;;;10.48;6.00;;;;;;;;;;1497486;39;20030;-62
2021/06/01 00:22:51;;;;;;;7.43;5.57;;;;;;;;;;1497371;39;20032;-62
2021/06/01 00:23:54;;;;;;;7.07;5.82;;;;;;;;;;1497649;39;20404;-63
2021/06/01 00:24:55;;;;;;;8.80;5.72;;;;;;;;;;1497681;39;20035;-63
2021/06/01 00:25:56;;;;;;;8.07;5.82;;;;;;;;;;1497334;39;20383;-63
2021/06/01 00:26:57;;;;;;;8.05;5.82;;;;;;;;;;1497512;39;20050;-63
2021/06/01 00:27:59;;;;;;;8.50;5.95;;;;;;;;;;1497426;39;20377;-63
2021/06/01 00:29:01;;;;;;;9.40;6.13;;;;;;;;;;1496949;39;20032;-63
2021/06/01 00:30:03;;;;;;;9.00;6.13;;;;;;;;;;1497116;39;20024;-63
2021/06/01 00:31:05;;;;;;;7.13;5.60;;;;;;;;;;1497663;39;20028;-63
2021/06/01 00:32:07;;;;;;;7.75;5.70;;;;;;;;;;1497612;39;20055;-62
2021/06/01 00:33:09;;;;;;;7.18;5.60;;;;;;;;;;1497456;39;20027;-63
2021/06/01 00:34:10;;;;;;;6.95;5.55;;;;;;;;;;1497341;39;20387;-63
2021/06/01 00:35:12;;;;;;;6.70;5.78;;;;;;;;;;1497500;39;20034;-63
2021/06/01 00:36:13;;;;;;;7.70;5.80;;;;;;;;;;1497470;39;20112;-63
2021/06/01 00:37:14;;;;;;;7.88;5.78;;;;;;;;;;1497787;39;20105;-63
2021/06/01 00:38:15;;;;;;;8.50;5.55;;;;;;;;;;1497425;39;20368;-63
2021/06/01 00:39:16;;;;;;;8.27;5.75;;;;;;;;;;1497549;39;20109;-63
2021/06/01 00:40:17;;;;;;;7.53;5.63;;;;;;;;;;1497335;39;20053;-63
2021/06/01 00:41:19;;;;;;;7.05;5.93;;;;;;;;;;1497416;39;20061;-62
2021/06/01 00:42:20;;;;;;;8.98;6.30;;;;;;;;;;1497363;39;20028;-62
2021/06/01 00:43:22;;;;;;;7.72;5.75;;;;;;;;;;1497545;39;20031;-62
2021/06/01 00:44:23;;;;;;;7.03;5.28;;;;;;;;;;1497475;39;20033;-62
2021/06/01 00:45:26;;;;;;;8.00;5.70;;;;;;;;;;1497424;39;20294;-63
2021/06/01 00:46:27;;;;;;;9.02;5.70;;;;;;;;;;1497239;39;20028;-62
2021/06/01 00:47:29;;;;;;;6.63;5.63;;;;;;;;;;1497306;39;20027;-62
2021/06/01 00:48:30;;;;;;;8.23;5.32;;;;;;;;;;1497221;39;20088;-62
2021/06/01 00:49:32;;;;;;;7.03;5.38;;;;;;;;;;1497237;39;20023;-62
2021/06/01 00:50:34;;;;;;;6.07;5.35;;;;;;;;;;1497257;39;20380;-63
2021/06/01 00:51:35;;;;;;;7.00;5.70;;;;;;;;;;1497274;39;20294;-62
2021/06/01 00:52:36;;;;;;;7.38;5.32;;;;;;;;;;1497190;39;20367;-62
2021/06/01 00:53:37;;;;;;;7.90;5.35;;;;;;;;;;1497289;39;20027;-62
2021/06/01 00:54:38;;;;;;;10.25;5.78;;;;;;;;;;1497370;39;20032;-62
2021/06/01 00:55:40;;;;;;;7.97;5.75;;;;;;;;;;1497369;39;20056;-63
2021/06/01 00:56:41;;;;;;;7.35;5.65;;;;;;;;;;1497508;39;20290;-62
2021/06/01 00:57:43;;;;;;;7.20;5.28;;;;;;;;;;1497464;39;20027;-62
2021/06/01 00:58:45;;;;;;;7.93;5.57;;;;;;;;;;1497255;39;20435;-62
2021/06/01 00:59:47;;;;;;;7.35;5.80;;;;;;;;;;1497305;39;20412;-63
2021/06/01 01:01:09;;;;;;;7.05;5.50;;;;;;;;;;1497389;39;20038;-63
2021/06/01 01:02:11;;;;;;;7.93;5.43;;;;;;;;;;1497192;39;20058;-62
2021/06/01 01:03:12;;;;;;;8.02;5.70;;;;;;;;;;1497248;39;20027;-63
2021/06/01 01:04:13;;;;;;;7.28;5.28;;;;;;;;;;1496863;39;20023;-62
2021/06/01 01:05:16;;;;;;;7.90;5.28;;;;;;;;;;1496770;39;20053;-62
2021/06/01 01:06:42;;;;;;;6.90;5.43;;;;;;;;;;1497371;39;20050;-62
2021/06/01 01:08:01;;;;;;;9.02;5.90;;;;;;;;;;1497015;39;20107;-63
2021/06/01 01:09:09;;;;;;;8.60;5.55;;;;;;;;;;1497309;39;20399;-62
2021/06/01 01:10:12;;;;;;;6.53;5.55;;;;;;;;;;1497265;39;20028;-63
2021/06/01 01:11:19;;;;;;;8.25;5.95;;;;;;;;;;1497309;39;20038;-62
2021/06/01 01:12:27;;;;;;;6.68;5.18;;;;;;;;;;1497506;39;20031;-62
2021/06/01 01:13:32;;;;;;;7.70;6.20;;;;;;;;;;1497413;39;20038;-62
2021/06/01 01:14:38;;;;;;;8.15;5.80;;;;;;;;;;1497549;39;20031;-63
2021/06/01 01:15:40;;;;;;;7.45;5.63;;;;;;;;;;1497351;39;20073;-62
2021/06/01 01:16:45;;;;;;;6.68;5.30;;;;;;;;;;1497434;39;20071;-63
2021/06/01 01:17:48;;;;;;;8.50;5.75;;;;;;;;;;1497227;39;20283;-62
2021/06/01 01:18:54;;;;;;;7.68;6.07;;;;;;;;;;1497350;39;20031;-62
2021/06/01 01:20:09;;;;;;;7.25;5.70;;;;;;;;;;1497185;39;20150;-62
2021/06/01 01:21:15;;;;;;;7.80;5.68;;;;;;;;;;1497442;39;20034;-62
2021/06/01 01:22:17;;;;;;;7.55;5.70;;;;;;;;;;1497296;39;20031;-62
2021/06/01 01:23:20;;;;;;;6.90;5.80;;;;;;;;;;1497412;39;20084;-62
2021/06/01 01:24:38;;;;;;;6.53;5.55;;;;;;;;;;1497396;39;20039;-63
2021/06/01 01:25:47;;;;;;;7.80;5.40;;;;;;;;;;1497270;39;20068;-62
2021/06/01 01:27:00;;;;;;;8.32;6.05;;;;;;;;;;1497346;39;20032;-62
2021/06/01 01:28:09;;;;;;;7.05;5.68;;;;;;;;;;1497328;39;20027;-62
2021/06/01 01:29:16;;;;;;;7.55;5.80;;;;;;;;;;1497443;39;20116;-62
2021/06/01 01:30:20;;;;;;;7.40;5.45;;;;;;;;;;1497435;39;20038;-62
2021/06/01 01:31:25;;;;;;;10.00;5.82;;;;;;;;;;1497126;39;20034;-62
2021/06/01 01:32:33;;;;;;;8.20;5.63;;;;;;;;;;1497411;39;20043;-62
2021/06/01 01:33:39;;;;;;;6.85;5.40;;;;;;;;;;1497164;39;20415;-62
2021/06/01 01:34:42;;;;;;;10.25;5.90;;;;;;;;;;1497390;39;20023;-62
2021/06/01 01:35:45;;;;;;;7.85;5.50;;;;;;;;;;1497239;39;20028;-62
2021/06/01 01:36:47;;;;;;;7.93;5.93;;;;;;;;;;1497104;39;20480;-62
2021/06/01 01:37:49;;;;;;;6.70;5.32;;;;;;;;;;1497326;39;20089;-62
2021/06/01 01:38:51;;;;;;;8.60;5.90;;;;;;;;;;1497389;39;20031;-62
2021/06/01 01:39:57;;;;;;;6.78;5.38;;;;;;;;;;1497305;39;20027;-62
2021/06/01 01:41:00;;;;;;;7.80;5.78;;;;;;;;;;1497155;39;20387;-62
2021/06/01 01:42:02;;;;;;;9.48;6.28;;;;;;;;;;1497105;39;20027;-63
2021/06/01 01:43:06;;;;;;;7.15;6.15;;;;;;;;;;1497198;39;20028;-62
2021/06/01 01:44:11;;;;;;;8.65;5.68;;;;;;;;;;1497112;39;20031;-62
2021/06/01 01:45:18;;;;;;;6.63;5.93;;;;;;;;;;1497107;39;20023;-62
2021/06/01 01:46:29;;;;;;;6.97;5.53;;;;;;;;;;1497163;39;20027;-62
2021/06/01 01:49:00;;;;;;;10.70;5.50;;;;;;;;;;1497153;39;20034;-62
2021/06/01 01:50:06;;;;;;;6.40;5.28;;;;;;;;;;1497127;39;20035;-62
2021/06/01 01:51:16;;;;;;;6.93;5.35;;;;;;;;;;1497365;39;20039;-63
2021/06/01 01:52:17;;;;;;;7.88;5.72;;;;;;;;;;1497342;39;20039;-62
2021/06/01 01:53:19;;;;;;;6.82;5.55;;;;;;;;;;1497155;39;20123;-62
2021/06/01 01:54:22;;;;;;;7.70;5.32;;;;;;;;;;1497089;39;20035;-62
2021/06/01 01:55:24;;;;;;;8.02;5.53;;;;;;;;;;1497299;39;20027;-62
2021/06/01 01:56:31;;;;;;;7.15;5.30;;;;;;;;;;1497257;39;20072;-62
2021/06/01 01:57:33;;;;;;;7.45;5.82;;;;;;;;;;1497161;39;20112;-62
2021/06/01 01:58:35;;;;;;;8.55;5.47;;;;;;;;;;1497317;39;20031;-62
2021/06/01 01:59:37;;;;;;;7.82;5.80;;;;;;;;;;1497325;39;20088;-62
2021/06/01 02:00:39;;;;;;;6.78;5.45;;;;;;;;;;1497257;39;20045;-62
2021/06/01 02:01:42;;;;;;;8.70;5.75;;;;;;;;;;1497355;39;20079;-62
2021/06/01 02:02:46;;;;;;;7.55;5.88;;;;;;;;;;1497202;39;20035;-63
2021/06/01 02:03:47;;;;;;;7.25;5.50;;;;;;;;;;1497258;39;20107;-62
2021/06/01 02:04:51;;;;;;;7.18;5.55;;;;;;;;;;1497192;39;20405;-61
2021/06/01 02:05:52;;;;;;;7.72;5.40;;;;;;;;;;1497213;39;20031;-63
2021/06/01 02:06:54;;;;;;;8.63;5.22;;;;;;;;;;1497299;39;20023;-61
2021/06/01 02:07:56;;;;;;;7.65;5.88;;;;;;;;;;1497187;39;20140;-63
2021/06/01 02:08:57;;;;;;;7.78;5.38;;;;;;;;;;1497404;39;20096;-62
2021/06/01 02:09:58;;;;;;;7.55;5.47;;;;;;;;;;1497232;39;20027;-62
2021/06/01 02:11:00;;;;;;;6.95;5.60;;;;;;;;;;1497297;39;20038;-61
2021/06/01 02:12:01;;;;;;;9.60;5.22;;;;;;;;;;1497224;39;20035;-61
2021/06/01 02:13:03;;;;;;;6.63;5.22;;;;;;;;;;1497171;39;20023;-63
2021/06/01 02:14:04;;;;;;;7.30;5.35;;;;;;;;;;1497269;39;20032;-62
2021/06/01 02:15:08;;;;;;;7.82;5.20;;;;;;;;;;1497276;39;20034;-62
2021/06/01 02:16:09;;;;;;;6.57;5.50;;;;;;;;;;1496967;39;20027;-62
2021/06/01 02:17:10;;;;;;;7.15;5.88;;;;;;;;;;1497139;39;20034;-63
2021/06/01 02:18:11;;;;;;;7.05;5.18;;;;;;;;;;1497150;39;20019;-63
2021/06/01 02:19:15;;;;;;;7.97;5.68;;;;;;;;;;1497042;39;20064;-62
2021/06/01 02:20:18;;;;;;;7.32;5.68;;;;;;;;;;1497261;39;20027;-62
2021/06/01 02:21:33;;;;;;;8.50;6.00;;;;;;;;;;1497220;39;20031;-62
2021/06/01 02:23:47;;;;;;;6.80;5.50;;;;;;;;;;1497052;39;20032;-62
2021/06/01 02:24:16;;;;;;;7.78;5.50;;;;;;;;;;1496955;39;20363;-63
2021/06/01 02:25:24;;;;;;;7.68;5.68;;;;;;;;;;1497180;39;20031;-62
2021/06/01 02:26:41;;;;;;;9.90;5.50;;;;;;;;;;1497140;39;20027;-62
2021/06/01 02:27:54;;;;;;;7.97;5.35;;;;;;;;;;1497181;39;20119;-61
2021/06/01 02:29:02;;;;;;;7.57;5.00;;;;;;;;;;1497129;39;20092;-62
2021/06/01 02:30:06;;;;;;;7.68;5.43;;;;;;;;;;1497061;39;20027;-62
2021/06/01 02:31:14;;;;;;;7.20;5.55;;;;;;;;;;1497045;39;20034;-63
2021/06/01 02:32:18;;;;;;;7.90;5.50;;;;;;;;;;1497093;39;20031;-62
2021/06/01 02:33:21;;;;;;;7.47;5.65;;;;;;;;;;1497238;39;20035;-62
2021/06/01 02:34:24;;;;;;;8.02;5.43;;;;;;;;;;1497158;39;20055;-62
2021/06/01 02:35:31;;;;;;;8.32;5.53;;;;;;;;;;1497004;39;20356;-62
2021/06/01 02:36:34;;;;;;;6.35;5.47;;;;;;;;;;1496993;39;20023;-61
2021/06/01 02:37:38;;;;;;;6.57;5.30;;;;;;;;;;1497024;39;20027;-61
2021/06/01 02:38:39;;;;;;;8.95;5.35;;;;;;;;;;1497150;39;20063;-62
2021/06/01 02:39:41;;;;;;;7.13;5.38;;;;;;;;;;1497056;39;20349;-62
2021/06/01 02:40:43;;;;;;;8.48;5.60;;;;;;;;;;1496950;39;20032;-62
2021/06/01 02:41:46;;;;;;;7.63;5.93;;;;;;;;;;1497106;39;20035;-62
2021/06/01 02:42:48;;;;;;;8.40;5.45;;;;;;;;;;1497144;39;20038;-61
2021/06/01 02:43:50;;;;;;;7.25;5.53;;;;;;;;;;1497217;39;20142;-62
2021/06/01 02:44:51;;;;;;;6.88;5.10;;;;;;;;;;1497130;39;20024;-63
2021/06/01 02:45:53;;;;;;;7.38;5.55;;;;;;;;;;1497067;39;20031;-61
2021/06/01 02:46:54;;;;;;;6.93;5.60;;;;;;;;;;1497235;39;20027;-62
2021/06/01 02:47:55;;;;;;;7.13;5.13;;;;;;;;;;1496967;39;20406;-62
2021/06/01 02:48:57;;;;;;;6.68;5.00;;;;;;;;;;1497120;39;20116;-62
2021/06/01 02:50:01;;;;;;;6.90;5.35;;;;;;;;;;1497108;39;20019;-62
2021/06/01 02:51:14;;;;;;;7.80;5.38;;;;;;;;;;1497180;39;20027;-62
2021/06/01 02:52:16;;;;;;;8.57;5.50;;;;;;;;;;1496997;39;20032;-61
2021/06/01 02:53:17;;;;;;;7.25;5.72;;;;;;;;;;1496907;39;20399;-62
2021/06/01 02:54:19;;;;;;;8.27;5.32;;;;;;;;;;1497065;39;20059;-62
2021/06/01 02:55:20;;;;;;;7.10;5.28;;;;;;;;;;1496909;39;20283;-62
2021/06/01 02:56:22;;;;;;;8.50;5.70;;;;;;;;;;1497118;39;20031;-62
2021/06/01 02:57:23;;;;;;;8.98;5.82;;;;;;;;;;1497176;39;20023;-62
2021/06/01 02:58:25;;;;;;;6.63;5.28;;;;;;;;;;1496921;39;20411;-62
2021/06/01 02:59:26;;;;;;;7.20;5.43;;;;;;;;;;1496915;39;20390;-63
2021/06/01 03:00:27;;;;;;;6.90;5.47;;;;;;;;;;1497168;39;20072;-62
2021/06/01 03:01:29;;;;;;;8.80;5.43;;;;;;;;;;1497073;39;20294;-62
2021/06/01 03:02:31;;;;;;;8.20;5.30;;;;;;;;;;1497003;39;20035;-62
2021/06/01 03:03:32;;;;;;;7.95;5.93;;;;;;;;;;1496897;39;20116;-62
2021/06/01 03:04:34;;;;;;;7.68;5.43;;;;;;;;;;1497069;39;20116;-61
2021/06/01 03:05:34;;;;;;;6.70;5.18;;;;;;;;;;1497088;39;20035;-62
2021/06/01 03:06:37;;;;;;;6.85;5.00;;;;;;;;;;1497107;39;20300;-62
2021/06/01 03:07:39;;;;;;;7.82;5.20;;;;;;;;;;1497142;39;20027;-62
2021/06/01 03:08:41;;;;;;;9.00;6.18;;;;;;;;;;1496955;39;20031;-62
2021/06/01 03:09:41;;;;;;;8.35;5.90;;;;;;;;;;1497102;39;20035;-62
2021/06/01 03:10:43;;;;;;;9.48;5.55;;;;;;;;;;1497233;39;20306;-62
2021/06/01 03:11:45;;;;;;;9.20;5.85;;;;;;;;;;1496908;39;20279;-62
2021/06/01 03:12:49;;;;;;;7.85;5.22;;;;;;;;;;1496903;39;20435;-62
2021/06/01 03:13:52;;;;;;;7.72;5.75;;;;;;;;;;1497086;39;20112;-62
2021/06/01 03:14:53;;;;;;;8.23;6.10;;;;;;;;;;1496878;39;20035;-62
2021/06/01 03:15:55;;;;;;;6.40;5.22;;;;;;;;;;1497145;39;20059;-62
2021/06/01 03:16:56;;;;;;;7.45;6.07;;;;;;;;;;1496866;39;20024;-62
2021/06/01 03:17:57;;;;;;;10.18;5.78;;;;;;;;;;1497188;39;20401;-62
2021/06/01 03:18:58;;;;;;;8.35;5.85;;;;;;;;;;1497035;39;20035;-63
2021/06/01 03:19:59;;;;;;;8.07;5.72;;;;;;;;;;1497057;39;20036;-63
2021/06/01 03:21:00;;;;;;;6.85;5.45;;;;;;;;;;1496834;39;20035;-62
2021/06/01 03:22:03;;;;;;;7.60;5.65;;;;;;;;;;1496963;39;20038;-62
2021/06/01 03:23:04;;;;;;;7.13;5.90;;;;;;;;;;1497026;39;20023;-62
2021/06/01 03:24:06;;;;;;;6.97;5.53;;;;;;;;;;1496956;39;20512;-62
2021/06/01 03:25:08;;;;;;;7.25;5.78;;;;;;;;;;1496944;39;20050;-63
2021/06/01 03:26:10;;;;;;;6.80;5.38;;;;;;;;;;1496999;39;20036;-62
2021/06/01 03:27:10;;;;;;;7.90;5.70;;;;;;;;;;1496881;39;20027;-62
2021/06/01 03:28:12;;;;;;;7.15;5.68;;;;;;;;;;1496900;39;20397;-62
2021/06/01 03:29:13;;;;;;;6.93;5.32;;;;;;;;;;1496915;39;20027;-62
2021/06/01 03:30:16;;;;;;;8.38;5.50;;;;;;;;;;1496891;39;20071;-62
2021/06/01 03:31:16;;;;;;;8.70;5.75;;;;;;;;;;1497542;39;20035;-62
2021/06/01 03:32:18;;;;;;;8.10;5.57;;;;;;;;;;1497611;39;20035;-62
2021/06/01 03:33:19;;;;;;;10.73;6.10;;;;;;;;;;1497443;39;20039;-62
2021/06/01 03:34:22;;;;;;;8.48;5.90;;;;;;;;;;1497610;39;20039;-62
2021/06/01 03:35:23;;;;;;;8.93;6.28;;;;;;;;;;1497456;39;20024;-62
2021/06/01 03:36:25;;;;;;;8.07;5.78;;;;;;;;;;1497462;39;20361;-62
2021/06/01 03:37:27;;;;;;;7.50;5.95;;;;;;;;;;1497514;39;20032;-62
2021/06/01 03:38:31;;;;;;;9.05;6.60;;;;;;;;;;1497677;39;20027;-62
2021/06/01 03:39:32;;;;;;;7.05;5.47;;;;;;;;;;1497467;39;20039;-61
2021/06/01 03:40:33;;;;;;;9.90;6.18;;;;;;;;;;1497601;39;20024;-63
2021/06/01 03:41:34;;;;;;;7.53;5.88;;;;;;;;;;1497653;39;20035;-62
2021/06/01 03:42:36;;;;;;;7.05;5.53;;;;;;;;;;1497626;39;20039;-62
2021/06/01 03:43:36;;;;;;;7.05;5.55;;;;;;;;;;1497578;39;20028;-62
2021/06/01 03:44:39;;;;;;;7.18;5.75;;;;;;;;;;1497715;39;20386;-61
2021/06/01 03:45:40;;;;;;;8.27;5.50;;;;;;;;;;1497412;39;20295;-63
2021/06/01 03:46:41;;;;;;;8.05;6.00;;;;;;;;;;1497616;39;20108;-62
2021/06/01 03:47:43;;;;;;;8.15;6.05;;;;;;;;;;1497587;39;20040;-62
2021/06/01 03:48:44;;;;;;;8.77;6.22;;;;;;;;;;1497439;39;20365;-61
2021/06/01 03:49:45;;;;;;;8.60;5.95;;;;;;;;;;1497425;39;20414;-63
2021/06/01 03:50:46;;;;;;;7.40;5.57;;;;;;;;;;1497586;39;20034;-62
2021/06/01 03:51:47;;;;;;;7.18;5.75;;;;;;;;;;1497472;39;20024;-62
2021/06/01 03:52:50;;;;;;;7.90;6.07;;;;;;;;;;1497731;39;20031;-62
2021/06/01 03:53:51;;;;;;;8.70;6.13;;;;;;;;;;1497487;39;20028;-62
2021/06/01 03:54:52;;;;;;;8.98;6.25;;;;;;;;;;1497630;39;20031;-62
2021/06/01 03:55:53;;;;;;;7.90;5.22;;;;;;;;;;1497565;39;20028;-62
2021/06/01 03:56:54;;;;;;;12.20;6.13;;;;;;;;;;1497606;39;20291;-62
2021/06/01 03:57:55;;;;;;;8.70;5.70;;;;;;;;;;1497407;39;20391;-62
2021/06/01 03:58:56;;;;;;;7.85;5.90;;;;;;;;;;1497459;39;20034;-62
2021/06/01 03:59:58;;;;;;;7.00;5.60;;;;;;;;;;1497501;39;20031;-62
2021/06/01 04:00:59;;;;;;;11.18;6.25;;;;;;;;;;1497703;39;20058;-62
2021/06/01 04:02:00;;;;;;;8.82;6.75;;;;;;;;;;1497368;39;20030;-62
2021/06/01 04:03:01;;;;;;;8.48;5.65;;;;;;;;;;1497743;39;20031;-61
2021/06/01 04:04:02;;;;;;;7.93;6.00;;;;;;;;;;1497338;39;20295;-62
2021/06/01 04:05:05;;;;;;;9.30;6.10;;;;;;;;;;1497656;39;20030;-63
2021/06/01 04:06:07;;;;;;;10.90;6.40;;;;;;;;;;1497437;39;20043;-63
2021/06/01 04:07:10;;;;;;;8.68;6.35;;;;;;;;;;1497545;39;20028;-61
2021/06/01 04:08:12;;;;;;;8.63;6.55;;;;;;;;;;1497649;39;20034;-62
2021/06/01 04:09:13;;;;;;;7.72;6.50;;;;;;;;;;1497646;39;20034;-62
2021/06/01 04:10:16;;;;;;;7.57;6.18;;;;;;;;;;1497483;39;20027;-62
2021/06/01 04:11:17;;;;;;;9.07;6.60;;;;;;;;;;1497562;39;20039;-62
2021/06/01 04:12:19;;;;;;;7.55;6.05;;;;;;;;;;1497468;39;20035;-62
2021/06/01 04:13:20;;;;;;;8.15;6.07;;;;;;;;;;1497580;39;20023;-62
2021/06/01 04:14:21;;;;;;;7.90;6.18;;;;;;;;;;1497528;39;20028;-62
2021/06/01 04:15:22;;;;;;;8.43;5.90;;;;;;;;;;1497784;39;20028;-62
2021/06/01 04:16:23;;;;;;;7.57;5.65;;;;;;;;;;1497291;39;20361;-62
2021/06/01 04:17:24;;;;;;;7.03;5.78;;;;;;;;;;1497426;39;20024;-63
2021/06/01 04:18:26;;;;;;;8.57;6.30;;;;;;;;;;1497540;39;20152;-62
2021/06/01 04:19:26;;;;;;;9.13;6.32;;;;;;;;;;1497672;39;20023;-63
2021/06/01 04:20:28;;;;;;;9.23;5.80;;;;;;;;;;1497300;39;20027;-62
2021/06/01 04:21:29;;;;;;;8.63;5.68;;;;;;;;;;1497502;39;20035;-63
2021/06/01 04:22:30;;;;;;;7.60;5.65;;;;;;;;;;1497319;39;20046;-62
2021/06/01 04:23:32;;;;;;;8.25;5.90;;;;;;;;;;1497335;39;20054;-62
2021/06/01 04:24:34;;;;;;;7.03;5.80;;;;;;;;;;1497546;39;20112;-63
2021/06/01 04:25:35;;;;;;;6.88;5.78;;;;;;;;;;1497475;39;20032;-63
2021/06/01 04:26:36;;;;;;;7.15;5.45;;;;;;;;;;1497598;39;20031;-62
2021/06/01 04:27:37;;;;;;;8.73;5.97;;;;;;;;;;1497306;39;20034;-62
2021/06/01 04:28:39;;;;;;;7.38;5.68;;;;;;;;;;1497578;39;20031;-62
2021/06/01 04:29:40;;;;;;;9.52;5.85;;;;;;;;;;1497394;39;20023;-62
2021/06/01 04:30:44;;;;;;;7.45;6.28;;;;;;;;;;1497361;39;20064;-62
2021/06/01 04:31:45;;;;;;;7.40;5.70;;;;;;;;;;1497326;39;20543;-62
2021/06/01 04:32:46;;;;;;;7.50;5.35;;;;;;;;;;1497359;39;20084;-62
2021/06/01 04:33:47;;;;;;;8.70;6.10;;;;;;;;;;1497505;39;20108;-62
2021/06/01 04:34:48;;;;;;;8.02;6.00;;;;;;;;;;1497627;39;20028;-61
2021/06/01 04:35:49;;;;;;;9.63;5.97;;;;;;;;;;1497299;39;20268;-62
2021/06/01 04:36:50;;;;;;;9.02;5.80;;;;;;;;;;1497465;39;20034;-62
2021/06/01 04:37:51;;;;;;;7.30;5.50;;;;;;;;;;1497487;39;20032;-61
2021/06/01 04:38:55;;;;;;;7.50;5.72;;;;;;;;;;1497319;39;20027;-62
2021/06/01 04:39:56;;;;;;;8.20;6.20;;;;;;;;;;1497273;39;20390;-63
2021/06/01 04:40:58;;;;;;;9.93;6.63;;;;;;;;;;1497510;39;20112;-62
2021/06/01 04:41:58;;;;;;;10.35;6.40;;;;;;;;;;1497124;39;20027;-62
2021/06/01 04:43:00;;;;;;;9.13;5.85;;;;;;;;;;1496782;39;20065;-62
2021/06/01 04:44:01;;;;;;;8.20;6.30;;;;;;;;;;1497370;39;20023;-62
2021/06/01 04:45:03;;;;;;;7.68;5.57;;;;;;;;;;1497330;39;20027;-63
2021/06/01 04:46:04;;;;;;;7.70;5.68;;;;;;;;;;1497252;39;20027;-62
2021/06/01 04:47:05;;;;;;;7.68;6.00;;;;;;;;;;1497559;39;20039;-62
2021/06/01 04:48:06;;;;;;;7.90;6.50;;;;;;;;;;1497325;39;20050;-63
2021/06/01 04:49:08;;;;;;;9.32;6.03;;;;;;;;;;1497480;39;20024;-62
2021/06/01 04:50:09;;;;;;;8.75;6.30;;;;;;;;;;1497271;39;20032;-62
2021/06/01 04:51:16;;;;;;;8.30;5.88;;;;;;;;;;1497522;39;20044;-62
2021/06/01 04:52:17;;;;;;;10.90;5.75;;;;;;;;;;1497424;39;20032;-62
2021/06/01 04:53:19;;;;;;;7.22;5.75;;;;;;;;;;1497522;39;20027;-63
2021/06/01 04:54:21;;;;;;;6.38;5.22;;;;;;;;;;1497287;39;20037;-61
2021/06/01 04:55:22;;;;;;;7.65;5.43;;;;;;;;;;1497502;39;20027;-63
2021/06/01 04:56:24;;;;;;;9.88;7.38;;;;;;;;;;1497344;39;20034;-62
2021/06/01 04:57:26;;;;;;;7.57;5.82;;;;;;;;;;1497503;39;20031;-63
2021/06/01 04:58:26;;;;;;;7.03;5.25;;;;;;;;;;1497374;39;20035;-63
2021/06/01 04:59:28;;;;;;;8.90;6.00;;;;;;;;;;1497474;39;20034;-62
2021/06/01 05:00:28;;;;;;;8.88;6.53;;;;;;;;;;1497322;39;20394;-63
2021/06/01 05:01:30;;;;;;;9.10;6.50;;;;;;;;;;1497314;39;20035;-63
2021/06/01 05:02:31;;;;;;;9.38;7.05;;;;;;;;;;1497265;39;20031;-62
2021/06/01 05:03:32;;;;;;;10.70;7.28;;;;;;;;;;1497222;39;20027;-62
2021/06/01 05:04:34;;;;;;;11.23;7.07;;;;;;;;;;1497484;39;20039;-62
2021/06/01 05:05:35;;;;;;;10.50;6.70;;;;;;;;;;1497278;39;20124;-62
2021/06/01 05:06:36;;;;;;;8.27;6.45;;;;;;;;;;1497413;39;20128;-62
2021/06/01 05:07:37;;;;;;;8.45;6.35;;;;;;;;;;1497467;39;20031;-63
2021/06/01 05:08:38;;;;;;;9.57;6.50;;;;;;;;;;1497402;39;20027;-63
2021/06/01 05:09:40;;;;;;;7.07;5.75;;;;;;;;;;1497354;39;20019;-63
2021/06/01 05:10:42;;;;;;;8.65;6.10;;;;;;;;;;1497436;39;20024;-62
2021/06/01 05:11:43;;;;;;;7.53;6.22;;;;;;;;;;1497518;39;20032;-63
2021/06/01 05:12:44;;;;;;;8.20;6.18;;;;;;;;;;1497135;39;20304;-63
2021/06/01 05:13:45;;;;;;;9.48;7.00;;;;;;;;;;1497525;39;20039;-62
2021/06/01 05:14:46;;;;;;;7.60;5.95;;;;;;;;;;1497464;39;20035;-63
2021/06/01 05:15:49;;;;;;;7.53;5.65;;;;;;;;;;1497314;39;20305;-63
2021/06/01 05:16:50;;;;;;;7.45;5.88;;;;;;;;;;1497493;39;20031;-62
2021/06/01 05:17:51;;;;;;;8.18;5.88;;;;;;;;;;1497210;39;20050;-63
2021/06/01 05:18:52;;;;;;;8.05;6.15;;;;;;;;;;1497219;39;20035;-62
2021/06/01 05:19:53;;;;;;;9.07;6.78;;;;;;;;;;1497200;39;20045;-62
2021/06/01 05:20:54;;;;;;;9.32;6.45;;;;;;;;;;1497471;39;20027;-63
2021/06/01 05:21:55;;;;;;;8.70;6.45;;;;;;;;;;1497273;39;20024;-62
2021/06/01 05:22:57;;;;;;;8.45;6.28;;;;;;;;;;1497383;39;20030;-63
2021/06/01 05:23:57;;;;;;;7.45;6.07;;;;;;;;;;1497271;39;20038;-63
2021/06/01 05:25:00;;;;;;;8.63;6.10;;;;;;;;;;1497370;39;20043;-63
2021/06/01 05:26:02;;;;;;;7.93;6.05;;;;;;;;;;1497137;39;20027;-63
2021/06/01 05:27:04;;;;;;;7.43;5.30;;;;;;;;;;1497378;39;20497;-63
2021/06/01 05:28:05;;;;;;;7.07;5.40;;;;;;;;;;1496905;39;20113;-63
2021/06/01 05:29:06;;;;;;;7.38;5.78;;;;;;;;;;1496853;39;20127;-63
2021/06/01 05:30:08;;;;;;;7.03;5.35;;;;;;;;;;1497121;39;20035;-63
2021/06/01 05:31:18;;;;;;;6.78;5.47;;;;;;;;;;1497354;39;20040;-63
2021/06/01 05:32:57;;;;;;;8.40;5.18;;;;;;;;;;1496613;39;20038;-63
2021/06/01 05:33:59;;;;;;;7.53;5.32;;;;;;;;;;1496932;39;20035;-63
2021/06/01 05:35:01;;;;;;;9.30;5.70;;;;;;;;;;1497373;39;20063;-63
2021/06/01 05:36:05;;;;;;;6.13;5.30;;;;;;;;;;1497294;39;20053;-63
2021/06/01 05:37:06;;;;;;;7.15;5.05;;;;;;;;;;1497285;39;20023;-63
2021/06/01 05:38:07;;;;;;;7.97;6.30;;;;;;;;;;1497149;39;20054;-63
2021/06/01 05:39:12;;;;;;;8.15;5.80;;;;;;;;;;1497328;39;20030;-63
2021/06/01 05:40:15;;;;;;;7.03;5.38;;;;;;;;;;1497121;39;20376;-63
2021/06/01 05:41:17;;;;;;;8.20;5.93;;;;;;;;;;1497165;39;20032;-63
2021/06/01 05:42:18;;;;;;;7.80;5.95;;;;;;;;;;1497079;39;20039;-63
2021/06/01 05:43:20;;;;;;;7.50;5.82;;;;;;;;;;1497305;39;20031;-63
2021/06/01 05:44:21;;;;;;;8.85;6.40;;;;;;;;;;1497171;39;20023;-63
2021/06/01 05:45:22;;;;;;;7.97;6.07;;;;;;;;;;1497272;39;20027;-63
2021/06/01 05:46:23;;;;;;;8.25;6.13;;;;;;;;;;1496754;39;20023;-63
2021/06/01 05:47:25;;;;;;;8.85;6.15;;;;;;;;;;1496624;39;20299;-63
2021/06/01 05:48:26;;;;;;;7.05;6.05;;;;;;;;;;1497248;39;20310;-62
2021/06/01 05:49:27;;;;;;;7.18;5.70;;;;;;;;;;1497381;39;20034;-63
2021/06/01 05:50:28;;;;;;;7.32;6.18;;;;;;;;;;1497188;39;20034;-63
2021/06/01 05:51:34;;;;;;;7.80;5.60;;;;;;;;;;1497059;39;20035;-63
2021/06/01 05:52:35;;;;;;;8.70;6.43;;;;;;;;;;1497096;39;20345;-63
2021/06/01 05:53:37;;;;;;;8.38;6.55;;;;;;;;;;1496974;39;20027;-63
2021/06/01 05:54:38;;;;;;;7.57;6.15;;;;;;;;;;1497129;39;20084;-63
2021/06/01 05:55:41;;;;;;;8.57;5.88;;;;;;;;;;1497356;39;20023;-63
2021/06/01 05:56:42;;;;;;;8.65;5.95;;;;;;;;;;1497123;39;20028;-63
2021/06/01 05:57:43;;;;;;;7.88;5.88;;;;;;;;;;1497264;39;20030;-63
2021/06/01 05:58:45;;;;;;;7.85;5.65;;;;;;;;;;1497178;39;20023;-63
2021/06/01 05:59:46;;;;;;;8.85;5.90;;;;;;;;;;1497121;39;20114;-63
2021/06/01 06:00:47;;;;;;;7.20;5.50;;;;;;;;;;1497432;39;20027;-63
2021/06/01 06:01:48;;;;;;;9.40;6.03;;;;;;;;;;1497128;39;20291;-63
2021/06/01 06:02:50;;;;;;;7.22;5.63;;;;;;;;;;1497138;39;20031;-63
2021/06/01 06:03:51;;;;;;;6.88;5.95;;;;;;;;;;1497333;39;20038;-63
2021/06/01 06:04:52;;;;;;;6.90;5.65;;;;;;;;;;1497439;39;20027;-64
2021/06/01 06:05:53;;;;;;;7.40;5.25;;;;;;;;;;1497022;39;20023;-64
2021/06/01 06:06:54;;;;;;;9.57;6.00;;;;;;;;;;1497121;39;20402;-63
2021/06/01 06:07:56;;;;;;;9.18;5.97;;;;;;;;;;1497115;39;20034;-63
2021/06/01 06:08:56;;;;;;;7.30;6.10;;;;;;;;;;1497099;39;20126;-64
2021/06/01 06:09:58;;;;;;;6.93;5.50;;;;;;;;;;1497201;39;20092;-64
2021/06/01 06:11:00;;;;;;;8.98;5.90;;;;;;;;;;1497032;39;20031;-63
2021/06/01 06:12:01;;;;;;;7.75;5.80;;;;;;;;;;1497216;39;20031;-63
2021/06/01 06:13:03;;;;;;;5.68;5.10;;;;;;;;;;1497379;39;20027;-64
2021/06/01 06:14:04;;;;;;;6.85;4.72;;;;;;;;;;1497447;39;20039;-64
2021/06/01 06:15:08;;;;;;;6.95;5.32;;;;;;;;;;1497068;39;20050;-64
2021/06/01 06:16:10;;;;;;;5.50;4.97;;;;;;;;;;1497121;39;20043;-64
2021/06/01 06:17:23;;;;;;;6.07;4.95;;;;;;;;;;1497051;39;20333;-63